首页
METAR-TAF:

METAR-TAF

机场 :

迪奥里·哈马尼国际机场

尼亞美, 尼日尔

纬度: 13-29N, 经度: 002-10E, 海拔: 223米

当前天气观测

该预报发布于47分钟前的19:00 UTC
风速2节,风向
温度 31°C
湿度 55%
气压 1010 hPa
能見度: 7000

METAR: DRRN 251900Z 17002KT 7000 NSC 31/21 Q1010 NOSIG

时间: 20:47 (19:47 UTC)

预报

该预报发布于2小时和47分钟前的17:00 UTC
预报有效从25日的 18点(UTC)到 26日的 24点(UTC)
风速6节,风向
能见度10公里或以上
1500米以下无云,无积雨云
几率 30% :
短暂存在
从 26日的 02点(UTC)到 26日的 08点(UTC)
风速20节,风向,有时为35节阵风
能見度: 1200
散云层高于2000英尺
少量云层高于3000英尺, 积雨云.
高吹尘, 雷暴, 雨

TAF: DRRN 251700Z 2518/2624 18006KT CAVOK PROB30 TEMPO 2602/2608 10020G35KT 1200 BLDU TSRA SCT020 FEW030CB

超过4000个机场的气象观测和天气预报(METAR&TAF报告)。

可查询的气象台以黄色和红色小点在地图上表示。

将鼠标移到小点上方,可查看气象台名称。

然后点击查看天气观测和预报。

如需切换地图:点击带黑十字的绿色按钮放大地图;点击带横线的绿色按钮缩小地图;或者点击绿色箭头查看邻近地区的地图。


METAR-TAF: